Japan Airlines Virtual Airport Information Service

Dubai International Airport

ICAO: OMDB Country: United Arab Emirates
Latitude: 25.2528 Longitude: 55.3644
Latest Arrival : FIN8901 (EFHK-OMDB) Latest Departure : JALJUMP (OMDB-RJAA)


WX CaptureLIVE
Data provided by noaa.gov | Fetched at 07:41:50

METAR : OMDB 010700Z 26006KT 210V320 CAVOK 36/07 Q1009 NOSIG

TAF : OMDB 010453Z 0106/0212 22007KT CAVOK BECMG 0107/0109 30012KT BECMG 0115/0117 12005KT BECMG 0207/0209 32010KT


Runway Data for OMDB
Data provided by openaviationdata.com

Runway ID Mag Var Hdg Length Elevation Surface ILS Freq ILS Id ILS Slope
12L 1 119° 13143 ft 34 ft Asphalt 110.1 IDBL 3
12R 1 119° 14606 ft 34 ft Asphalt 109.5 IDBE 3
30L 1 299° 14606 ft 34 ft Asphalt 111.3 IDBW 3
30R 1 299° 13143 ft 34 ft Asphalt 110.9 IDBR 3

Dubai International Airport, United Arab Emirates
Use only for reference purposes



Not for navigational purposes.